sensor_id;sensor_type;location;lat;lon;timestamp;P1;durP1;ratioP1;P2;durP2;ratioP2
53245;SDS011;39569;51.090;-1.786;2023-06-04T00:01:40;11.25;;;5.72;;
53245;SDS011;39569;51.090;-1.786;2023-06-04T00:04:10;11.23;;;6.75;;
53245;SDS011;39569;51.090;-1.786;2023-06-04T00:06:36;11.13;;;6.45;;
53245;SDS011;39569;51.090;-1.786;2023-06-04T00:09:03;14.23;;;6.32;;
53245;SDS011;39569;51.090;-1.786;2023-06-04T00:11:31;9.23;;;5.57;;
53245;SDS011;39569;51.090;-1.786;2023-06-04T00:14:00;7.55;;;5.30;;
53245;SDS011;39569;51.090;-1.786;2023-06-04T00:16:27;11.63;;;5.32;;
53245;SDS011;39569;51.090;-1.786;2023-06-04T00:18:53;13.50;;;6.38;;
53245;SDS011;39569;51.090;-1.786;2023-06-04T00:21:20;17.35;;;5.50;;
53245;SDS011;39569;51.090;-1.786;2023-06-04T00:23:47;11.35;;;5.00;;
53245;SDS011;39569;51.090;-1.786;2023-06-04T00:26:14;12.88;;;5.50;;
53245;SDS011;39569;51.090;-1.786;2023-06-04T00:28:42;10.98;;;5.57;;
53245;SDS011;39569;51.090;-1.786;2023-06-04T00:31:09;9.10;;;5.55;;
53245;SDS011;39569;51.090;-1.786;2023-06-04T00:33:37;6.90;;;4.35;;
53245;SDS011;39569;51.090;-1.786;2023-06-04T00:36:05;9.15;;;5.30;;
53245;SDS011;39569;51.090;-1.786;2023-06-04T00:38:32;9.02;;;6.07;;
53245;SDS011;39569;51.090;-1.786;2023-06-04T00:40:59;6.82;;;4.40;;
53245;SDS011;39569;51.090;-1.786;2023-06-04T00:43:25;23.67;;;5.55;;
53245;SDS011;39569;51.090;-1.786;2023-06-04T00:45:54;8.25;;;5.82;;
53245;SDS011;39569;51.090;-1.786;2023-06-04T00:48:20;11.65;;;5.50;;
53245;SDS011;39569;51.090;-1.786;2023-06-04T00:50:47;8.27;;;5.65;;
53245;SDS011;39569;51.090;-1.786;2023-06-04T00:53:14;9.40;;;5.05;;
53245;SDS011;39569;51.090;-1.786;2023-06-04T00:55:41;13.68;;;5.60;;
53245;SDS011;39569;51.090;-1.786;2023-06-04T00:58:08;12.13;;;6.38;;
53245;SDS011;39569;51.090;-1.786;2023-06-04T01:00:35;21.13;;;6.63;;
53245;SDS011;39569;51.090;-1.786;2023-06-04T01:03:07;13.23;;;5.97;;
53245;SDS011;39569;51.090;-1.786;2023-06-04T01:05:39;19.00;;;5.63;;
53245;SDS011;39569;51.090;-1.786;2023-06-04T01:08:10;12.90;;;7.00;;
53245;SDS011;39569;51.090;-1.786;2023-06-04T01:10:38;13.18;;;5.88;;
53245;SDS011;39569;51.090;-1.786;2023-06-04T01:13:16;16.27;;;6.22;;
53245;SDS011;39569;51.090;-1.786;2023-06-04T01:15:43;14.95;;;5.95;;
53245;SDS011;39569;51.090;-1.786;2023-06-04T01:18:11;12.68;;;6.15;;
53245;SDS011;39569;51.090;-1.786;2023-06-04T01:20:53;8.38;;;5.25;;
53245;SDS011;39569;51.090;-1.786;2023-06-04T01:23:30;9.70;;;5.85;;
53245;SDS011;39569;51.090;-1.786;2023-06-04T01:26:00;13.85;;;6.43;;
53245;SDS011;39569;51.090;-1.786;2023-06-04T01:28:29;6.40;;;5.32;;
53245;SDS011;39569;51.090;-1.786;2023-06-04T01:30:56;11.20;;;5.30;;
53245;SDS011;39569;51.090;-1.786;2023-06-04T01:33:26;10.05;;;5.22;;
53245;SDS011;39569;51.090;-1.786;2023-06-04T01:35:52;10.38;;;4.85;;
53245;SDS011;39569;51.090;-1.786;2023-06-04T01:38:19;10.93;;;5.57;;
53245;SDS011;39569;51.090;-1.786;2023-06-04T01:40:46;10.20;;;4.72;;
53245;SDS011;39569;51.090;-1.786;2023-06-04T01:43:13;8.02;;;5.68;;
53245;SDS011;39569;51.090;-1.786;2023-06-04T01:45:40;15.40;;;5.25;;
53245;SDS011;39569;51.090;-1.786;2023-06-04T01:48:07;10.48;;;5.47;;
53245;SDS011;39569;51.090;-1.786;2023-06-04T01:50:35;11.65;;;5.78;;
53245;SDS011;39569;51.090;-1.786;2023-06-04T01:53:02;20.75;;;6.28;;
53245;SDS011;39569;51.090;-1.786;2023-06-04T01:55:29;10.80;;;4.85;;
53245;SDS011;39569;51.090;-1.786;2023-06-04T01:57:58;8.68;;;5.55;;
53245;SDS011;39569;51.090;-1.786;2023-06-04T02:00:25;8.45;;;5.70;;
53245;SDS011;39569;51.090;-1.786;2023-06-04T02:02:52;9.43;;;4.88;;
53245;SDS011;39569;51.090;-1.786;2023-06-04T02:05:21;9.68;;;4.63;;
53245;SDS011;39569;51.090;-1.786;2023-06-04T02:07:49;9.13;;;4.82;;
53245;SDS011;39569;51.090;-1.786;2023-06-04T02:10:17;9.40;;;5.00;;
53245;SDS011;39569;51.090;-1.786;2023-06-04T02:12:54;6.95;;;4.00;;
53245;SDS011;39569;51.090;-1.786;2023-06-04T02:15:22;4.90;;;3.72;;
53245;SDS011;39569;51.090;-1.786;2023-06-04T02:17:50;11.55;;;5.25;;
53245;SDS011;39569;51.090;-1.786;2023-06-04T02:20:17;9.20;;;5.18;;
53245;SDS011;39569;51.090;-1.786;2023-06-04T02:22:44;7.72;;;4.97;;
53245;SDS011;39569;51.090;-1.786;2023-06-04T02:25:12;9.68;;;4.43;;
53245;SDS011;39569;51.090;-1.786;2023-06-04T02:27:39;8.73;;;4.90;;
53245;SDS011;39569;51.090;-1.786;2023-06-04T02:30:06;7.70;;;4.85;;
53245;SDS011;39569;51.090;-1.786;2023-06-04T02:32:33;15.02;;;6.07;;
53245;SDS011;39569;51.090;-1.786;2023-06-04T02:35:01;8.25;;;5.15;;
53245;SDS011;39569;51.090;-1.786;2023-06-04T02:37:28;11.40;;;5.90;;
53245;SDS011;39569;51.090;-1.786;2023-06-04T02:39:55;14.82;;;5.90;;
53245;SDS011;39569;51.090;-1.786;2023-06-04T02:42:23;11.20;;;5.28;;
53245;SDS011;39569;51.090;-1.786;2023-06-04T02:44:50;11.60;;;6.65;;
53245;SDS011;39569;51.090;-1.786;2023-06-04T02:47:17;9.00;;;4.97;;
53245;SDS011;39569;51.090;-1.786;2023-06-04T02:49:44;6.75;;;4.82;;
53245;SDS011;39569;51.090;-1.786;2023-06-04T02:52:11;15.75;;;5.60;;
53245;SDS011;39569;51.090;-1.786;2023-06-04T02:54:38;9.73;;;5.93;;
53245;SDS011;39569;51.090;-1.786;2023-06-04T02:57:05;8.30;;;5.55;;
53245;SDS011;39569;51.090;-1.786;2023-06-04T02:59:35;13.52;;;5.35;;
53245;SDS011;39569;51.090;-1.786;2023-06-04T03:02:03;8.05;;;4.60;;
53245;SDS011;39569;51.090;-1.786;2023-06-04T03:04:31;11.55;;;5.70;;
53245;SDS011;39569;51.090;-1.786;2023-06-04T03:07:04;14.20;;;5.57;;
53245;SDS011;39569;51.090;-1.786;2023-06-04T03:09:33;12.73;;;6.55;;
53245;SDS011;39569;51.090;-1.786;2023-06-04T03:12:00;12.35;;;6.00;;
53245;SDS011;39569;51.090;-1.786;2023-06-04T03:14:27;11.90;;;5.75;;
53245;SDS011;39569;51.090;-1.786;2023-06-04T03:16:59;9.77;;;5.50;;
53245;SDS011;39569;51.090;-1.786;2023-06-04T03:19:32;2.03;;;1.90;;
53245;SDS011;39569;51.090;-1.786;2023-06-04T03:21:59;6.85;;;5.45;;
53245;SDS011;39569;51.090;-1.786;2023-06-04T03:24:30;8.57;;;4.35;;
53245;SDS011;39569;51.090;-1.786;2023-06-04T03:26:59;8.82;;;5.03;;
53245;SDS011;39569;51.090;-1.786;2023-06-04T03:29:26;13.02;;;5.90;;
53245;SDS011;39569;51.090;-1.786;2023-06-04T03:31:52;7.25;;;4.68;;
53245;SDS011;39569;51.090;-1.786;2023-06-04T03:34:20;8.50;;;5.32;;
53245;SDS011;39569;51.090;-1.786;2023-06-04T03:36:49;6.90;;;4.63;;
53245;SDS011;39569;51.090;-1.786;2023-06-04T03:39:16;11.65;;;6.32;;
53245;SDS011;39569;51.090;-1.786;2023-06-04T03:41:43;8.27;;;5.45;;
53245;SDS011;39569;51.090;-1.786;2023-06-04T03:44:12;9.95;;;5.47;;
53245;SDS011;39569;51.090;-1.786;2023-06-04T03:46:39;11.30;;;5.80;;
53245;SDS011;39569;51.090;-1.786;2023-06-04T03:49:05;12.82;;;6.60;;
53245;SDS011;39569;51.090;-1.786;2023-06-04T03:51:34;10.32;;;5.22;;
53245;SDS011;39569;51.090;-1.786;2023-06-04T03:54:01;12.30;;;6.13;;
53245;SDS011;39569;51.090;-1.786;2023-06-04T03:56:28;13.10;;;6.80;;
53245;SDS011;39569;51.090;-1.786;2023-06-04T03:58:55;9.93;;;6.43;;
53245;SDS011;39569;51.090;-1.786;2023-06-04T04:01:22;12.18;;;6.35;;
53245;SDS011;39569;51.090;-1.786;2023-06-04T04:03:49;3.70;;;1.80;;
53245;SDS011;39569;51.090;-1.786;2023-06-04T04:06:16;6.78;;;4.80;;
53245;SDS011;39569;51.090;-1.786;2023-06-04T04:08:44;16.95;;;6.10;;
53245;SDS011;39569;51.090;-1.786;2023-06-04T04:11:13;25.23;;;7.45;;
53245;SDS011;39569;51.090;-1.786;2023-06-04T04:13:41;6.65;;;6.00;;
53245;SDS011;39569;51.090;-1.786;2023-06-04T04:16:08;11.25;;;5.95;;
53245;SDS011;39569;51.090;-1.786;2023-06-04T04:18:35;7.93;;;2.55;;
53245;SDS011;39569;51.090;-1.786;2023-06-04T04:21:03;21.42;;;5.95;;
53245;SDS011;39569;51.090;-1.786;2023-06-04T04:23:30;8.48;;;5.68;;
53245;SDS011;39569;51.090;-1.786;2023-06-04T04:25:59;10.52;;;5.10;;
53245;SDS011;39569;51.090;-1.786;2023-06-04T04:28:27;8.02;;;5.25;;
53245;SDS011;39569;51.090;-1.786;2023-06-04T04:30:55;8.18;;;5.75;;
53245;SDS011;39569;51.090;-1.786;2023-06-04T04:33:22;6.95;;;4.88;;
53245;SDS011;39569;51.090;-1.786;2023-06-04T04:35:50;11.10;;;4.93;;
53245;SDS011;39569;51.090;-1.786;2023-06-04T04:38:18;7.65;;;4.60;;
53245;SDS011;39569;51.090;-1.786;2023-06-04T04:40:48;10.25;;;5.68;;
53245;SDS011;39569;51.090;-1.786;2023-06-04T04:43:27;14.75;;;6.45;;
53245;SDS011;39569;51.090;-1.786;2023-06-04T04:45:55;14.93;;;7.30;;
53245;SDS011;39569;51.090;-1.786;2023-06-04T04:48:22;8.32;;;5.63;;
53245;SDS011;39569;51.090;-1.786;2023-06-04T04:50:48;12.68;;;6.28;;
53245;SDS011;39569;51.090;-1.786;2023-06-04T04:53:15;10.73;;;6.05;;
53245;SDS011;39569;51.090;-1.786;2023-06-04T04:55:42;11.63;;;5.75;;
53245;SDS011;39569;51.090;-1.786;2023-06-04T04:58:09;11.85;;;5.82;;
53245;SDS011;39569;51.090;-1.786;2023-06-04T05:00:37;8.05;;;5.72;;
53245;SDS011;39569;51.090;-1.786;2023-06-04T05:03:04;9.65;;;5.57;;
53245;SDS011;39569;51.090;-1.786;2023-06-04T05:05:31;10.00;;;5.38;;
53245;SDS011;39569;51.090;-1.786;2023-06-04T05:07:59;11.38;;;5.72;;
53245;SDS011;39569;51.090;-1.786;2023-06-04T05:10:25;9.98;;;4.85;;
53245;SDS011;39569;51.090;-1.786;2023-06-04T05:12:52;10.25;;;6.18;;
53245;SDS011;39569;51.090;-1.786;2023-06-04T05:15:19;11.27;;;3.47;;
53245;SDS011;39569;51.090;-1.786;2023-06-04T05:17:48;9.90;;;5.30;;
53245;SDS011;39569;51.090;-1.786;2023-06-04T05:20:14;15.70;;;5.80;;
53245;SDS011;39569;51.090;-1.786;2023-06-04T05:22:41;7.97;;;5.47;;
53245;SDS011;39569;51.090;-1.786;2023-06-04T05:25:08;11.55;;;5.43;;
53245;SDS011;39569;51.090;-1.786;2023-06-04T05:27:35;14.95;;;6.45;;
53245;SDS011;39569;51.090;-1.786;2023-06-04T05:30:03;8.68;;;4.55;;
53245;SDS011;39569;51.090;-1.786;2023-06-04T05:32:30;8.43;;;4.78;;
53245;SDS011;39569;51.090;-1.786;2023-06-04T05:34:58;13.90;;;5.50;;
53245;SDS011;39569;51.090;-1.786;2023-06-04T05:37:29;13.57;;;6.20;;
53245;SDS011;39569;51.090;-1.786;2023-06-04T05:39:59;17.80;;;5.38;;
53245;SDS011;39569;51.090;-1.786;2023-06-04T05:42:30;8.00;;;2.35;;
53245;SDS011;39569;51.090;-1.786;2023-06-04T05:44:57;7.80;;;4.30;;
53245;SDS011;39569;51.090;-1.786;2023-06-04T05:47:23;11.63;;;6.07;;
53245;SDS011;39569;51.090;-1.786;2023-06-04T05:49:50;9.10;;;4.72;;
53245;SDS011;39569;51.090;-1.786;2023-06-04T05:52:18;9.23;;;5.63;;
53245;SDS011;39569;51.090;-1.786;2023-06-04T05:54:45;6.63;;;4.95;;
53245;SDS011;39569;51.090;-1.786;2023-06-04T05:57:12;6.05;;;4.85;;
53245;SDS011;39569;51.090;-1.786;2023-06-04T05:59:38;14.63;;;5.35;;
53245;SDS011;39569;51.090;-1.786;2023-06-04T06:02:05;14.90;;;5.05;;
53245;SDS011;39569;51.090;-1.786;2023-06-04T06:04:32;8.77;;;4.45;;
53245;SDS011;39569;51.090;-1.786;2023-06-04T06:06:59;10.00;;;4.70;;
53245;SDS011;39569;51.090;-1.786;2023-06-04T06:09:27;13.70;;;4.75;;
53245;SDS011;39569;51.090;-1.786;2023-06-04T06:11:54;10.25;;;4.50;;
53245;SDS011;39569;51.090;-1.786;2023-06-04T06:14:20;8.57;;;3.83;;
53245;SDS011;39569;51.090;-1.786;2023-06-04T06:16:48;8.05;;;5.03;;
53245;SDS011;39569;51.090;-1.786;2023-06-04T06:19:15;6.82;;;3.63;;
53245;SDS011;39569;51.090;-1.786;2023-06-04T06:21:42;11.43;;;4.03;;
53245;SDS011;39569;51.090;-1.786;2023-06-04T06:24:09;7.60;;;3.88;;
53245;SDS011;39569;51.090;-1.786;2023-06-04T06:26:37;15.43;;;3.80;;
53245;SDS011;39569;51.090;-1.786;2023-06-04T06:29:04;7.22;;;3.88;;
53245;SDS011;39569;51.090;-1.786;2023-06-04T06:31:30;11.07;;;3.97;;
53245;SDS011;39569;51.090;-1.786;2023-06-04T06:33:57;3.45;;;3.00;;
53245;SDS011;39569;51.090;-1.786;2023-06-04T06:36:24;7.70;;;3.90;;
53245;SDS011;39569;51.090;-1.786;2023-06-04T06:38:51;10.73;;;4.65;;
53245;SDS011;39569;51.090;-1.786;2023-06-04T06:41:18;6.57;;;4.25;;
53245;SDS011;39569;51.090;-1.786;2023-06-04T06:43:47;6.30;;;4.65;;
53245;SDS011;39569;51.090;-1.786;2023-06-04T06:46:14;5.32;;;4.53;;
53245;SDS011;39569;51.090;-1.786;2023-06-04T06:48:40;9.10;;;4.68;;
53245;SDS011;39569;51.090;-1.786;2023-06-04T06:51:10;8.48;;;4.43;;
53245;SDS011;39569;51.090;-1.786;2023-06-04T06:53:37;8.13;;;4.15;;
53245;SDS011;39569;51.090;-1.786;2023-06-04T06:56:04;7.53;;;4.43;;
53245;SDS011;39569;51.090;-1.786;2023-06-04T06:58:31;7.55;;;3.72;;
53245;SDS011;39569;51.090;-1.786;2023-06-04T07:00:59;5.43;;;3.53;;
53245;SDS011;39569;51.090;-1.786;2023-06-04T07:03:26;10.00;;;4.97;;
53245;SDS011;39569;51.090;-1.786;2023-06-04T07:05:53;6.47;;;3.95;;
53245;SDS011;39569;51.090;-1.786;2023-06-04T07:08:20;6.60;;;3.03;;
53245;SDS011;39569;51.090;-1.786;2023-06-04T07:10:47;4.82;;;3.95;;
53245;SDS011;39569;51.090;-1.786;2023-06-04T07:13:14;9.48;;;4.32;;
53245;SDS011;39569;51.090;-1.786;2023-06-04T07:15:41;6.20;;;2.72;;
53245;SDS011;39569;51.090;-1.786;2023-06-04T07:18:09;6.65;;;3.63;;
53245;SDS011;39569;51.090;-1.786;2023-06-04T07:20:36;5.05;;;3.65;;
53245;SDS011;39569;51.090;-1.786;2023-06-04T07:23:03;5.28;;;3.75;;
53245;SDS011;39569;51.090;-1.786;2023-06-04T07:25:31;5.13;;;3.45;;
53245;SDS011;39569;51.090;-1.786;2023-06-04T07:27:58;10.23;;;4.35;;
53245;SDS011;39569;51.090;-1.786;2023-06-04T07:30:29;4.68;;;3.38;;
53245;SDS011;39569;51.090;-1.786;2023-06-04T07:32:56;7.75;;;3.85;;
53245;SDS011;39569;51.090;-1.786;2023-06-04T07:35:24;3.45;;;2.90;;
53245;SDS011;39569;51.090;-1.786;2023-06-04T07:37:51;7.90;;;4.15;;
53245;SDS011;39569;51.090;-1.786;2023-06-04T07:40:18;5.72;;;2.90;;
53245;SDS011;39569;51.090;-1.786;2023-06-04T07:42:45;5.28;;;2.92;;
53245;SDS011;39569;51.090;-1.786;2023-06-04T07:45:12;5.65;;;2.83;;
53245;SDS011;39569;51.090;-1.786;2023-06-04T07:47:40;5.32;;;3.42;;
53245;SDS011;39569;51.090;-1.786;2023-06-04T07:50:07;5.93;;;3.75;;
53245;SDS011;39569;51.090;-1.786;2023-06-04T07:52:35;4.38;;;3.25;;
53245;SDS011;39569;51.090;-1.786;2023-06-04T07:55:02;5.78;;;3.90;;
53245;SDS011;39569;51.090;-1.786;2023-06-04T07:57:30;6.57;;;3.45;;
53245;SDS011;39569;51.090;-1.786;2023-06-04T07:59:57;5.00;;;3.45;;
53245;SDS011;39569;51.090;-1.786;2023-06-04T08:02:24;6.65;;;2.85;;
53245;SDS011;39569;51.090;-1.786;2023-06-04T08:04:51;4.10;;;3.15;;
53245;SDS011;39569;51.090;-1.786;2023-06-04T08:07:17;5.82;;;3.92;;
53245;SDS011;39569;51.090;-1.786;2023-06-04T08:09:46;8.85;;;3.50;;
53245;SDS011;39569;51.090;-1.786;2023-06-04T08:12:12;7.72;;;3.55;;
53245;SDS011;39569;51.090;-1.786;2023-06-04T08:14:41;7.20;;;3.85;;
53245;SDS011;39569;51.090;-1.786;2023-06-04T08:17:08;5.43;;;3.25;;
53245;SDS011;39569;51.090;-1.786;2023-06-04T08:19:35;4.90;;;3.72;;
53245;SDS011;39569;51.090;-1.786;2023-06-04T08:22:01;3.45;;;3.05;;
53245;SDS011;39569;51.090;-1.786;2023-06-04T08:24:29;3.95;;;3.13;;
53245;SDS011;39569;51.090;-1.786;2023-06-04T08:26:57;4.55;;;3.40;;
53245;SDS011;39569;51.090;-1.786;2023-06-04T08:29:23;3.40;;;3.08;;
53245;SDS011;39569;51.090;-1.786;2023-06-04T08:31:50;11.00;;;4.20;;
53245;SDS011;39569;51.090;-1.786;2023-06-04T08:34:17;4.03;;;3.30;;
53245;SDS011;39569;51.090;-1.786;2023-06-04T08:36:44;4.40;;;3.53;;
53245;SDS011;39569;51.090;-1.786;2023-06-04T08:39:11;4.45;;;3.53;;
53245;SDS011;39569;51.090;-1.786;2023-06-04T08:41:40;4.57;;;3.22;;
53245;SDS011;39569;51.090;-1.786;2023-06-04T08:44:11;4.40;;;2.30;;
53245;SDS011;39569;51.090;-1.786;2023-06-04T08:46:39;3.20;;;2.67;;
53245;SDS011;39569;51.090;-1.786;2023-06-04T08:49:06;7.35;;;4.03;;
53245;SDS011;39569;51.090;-1.786;2023-06-04T08:51:34;9.63;;;3.58;;
53245;SDS011;39569;51.090;-1.786;2023-06-04T08:54:03;3.05;;;2.75;;
53245;SDS011;39569;51.090;-1.786;2023-06-04T08:56:32;4.57;;;3.05;;
53245;SDS011;39569;51.090;-1.786;2023-06-04T08:59:00;5.47;;;3.50;;
53245;SDS011;39569;51.090;-1.786;2023-06-04T09:01:29;3.92;;;3.40;;
53245;SDS011;39569;51.090;-1.786;2023-06-04T09:03:58;9.40;;;3.53;;
53245;SDS011;39569;51.090;-1.786;2023-06-04T09:06:27;4.28;;;2.42;;
53245;SDS011;39569;51.090;-1.786;2023-06-04T09:08:56;7.38;;;3.45;;
53245;SDS011;39569;51.090;-1.786;2023-06-04T09:11:25;3.05;;;2.35;;
53245;SDS011;39569;51.090;-1.786;2023-06-04T09:13:53;6.25;;;3.10;;
53245;SDS011;39569;51.090;-1.786;2023-06-04T09:16:26;7.90;;;3.38;;
53245;SDS011;39569;51.090;-1.786;2023-06-04T09:18:59;5.50;;;3.05;;
53245;SDS011;39569;51.090;-1.786;2023-06-04T09:21:27;3.47;;;3.13;;
53245;SDS011;39569;51.090;-1.786;2023-06-04T09:23:54;2.83;;;2.63;;
53245;SDS011;39569;51.090;-1.786;2023-06-04T09:26:21;5.65;;;3.42;;
53245;SDS011;39569;51.090;-1.786;2023-06-04T09:28:47;8.20;;;3.70;;
53245;SDS011;39569;51.090;-1.786;2023-06-04T09:31:14;3.08;;;2.15;;
53245;SDS011;39569;51.090;-1.786;2023-06-04T09:33:42;3.75;;;2.50;;
53245;SDS011;39569;51.090;-1.786;2023-06-04T09:36:11;3.85;;;2.67;;
53245;SDS011;39569;51.090;-1.786;2023-06-04T09:38:38;3.15;;;2.50;;
53245;SDS011;39569;51.090;-1.786;2023-06-04T09:41:10;8.30;;;2.90;;
53245;SDS011;39569;51.090;-1.786;2023-06-04T09:43:38;6.10;;;3.10;;
53245;SDS011;39569;51.090;-1.786;2023-06-04T09:46:08;1.90;;;1.73;;
53245;SDS011;39569;51.090;-1.786;2023-06-04T09:48:38;4.07;;;2.50;;
53245;SDS011;39569;51.090;-1.786;2023-06-04T09:51:08;4.22;;;2.60;;
53245;SDS011;39569;51.090;-1.786;2023-06-04T09:53:37;2.67;;;2.42;;
53245;SDS011;39569;51.090;-1.786;2023-06-04T09:56:05;5.40;;;2.67;;
53245;SDS011;39569;51.090;-1.786;2023-06-04T09:58:33;5.00;;;2.50;;
53245;SDS011;39569;51.090;-1.786;2023-06-04T10:01:03;2.72;;;2.13;;
53245;SDS011;39569;51.090;-1.786;2023-06-04T10:03:31;3.00;;;2.67;;
53245;SDS011;39569;51.090;-1.786;2023-06-04T10:05:59;2.58;;;2.38;;
53245;SDS011;39569;51.090;-1.786;2023-06-04T10:08:31;5.60;;;3.05;;
53245;SDS011;39569;51.090;-1.786;2023-06-04T10:11:01;3.17;;;2.58;;
53245;SDS011;39569;51.090;-1.786;2023-06-04T10:13:31;3.20;;;2.63;;
53245;SDS011;39569;51.090;-1.786;2023-06-04T10:16:06;5.53;;;2.88;;
53245;SDS011;39569;51.090;-1.786;2023-06-04T10:18:33;8.20;;;3.03;;
53245;SDS011;39569;51.090;-1.786;2023-06-04T10:21:01;3.13;;;2.45;;
53245;SDS011;39569;51.090;-1.786;2023-06-04T10:23:28;3.75;;;2.90;;
53245;SDS011;39569;51.090;-1.786;2023-06-04T10:25:56;2.83;;;2.50;;
53245;SDS011;39569;51.090;-1.786;2023-06-04T10:28:25;11.23;;;2.65;;
53245;SDS011;39569;51.090;-1.786;2023-06-04T10:30:53;2.55;;;2.30;;
53245;SDS011;39569;51.090;-1.786;2023-06-04T10:33:20;3.25;;;2.22;;
53245;SDS011;39569;51.090;-1.786;2023-06-04T10:35:49;2.95;;;2.03;;
53245;SDS011;39569;51.090;-1.786;2023-06-04T10:38:16;3.63;;;2.75;;
53245;SDS011;39569;51.090;-1.786;2023-06-04T10:40:44;3.75;;;2.67;;
53245;SDS011;39569;51.090;-1.786;2023-06-04T10:43:11;3.22;;;2.72;;
53245;SDS011;39569;51.090;-1.786;2023-06-04T10:45:40;2.92;;;2.45;;
53245;SDS011;39569;51.090;-1.786;2023-06-04T10:48:08;3.55;;;2.25;;
53245;SDS011;39569;51.090;-1.786;2023-06-04T10:50:49;8.50;;;2.33;;
53245;SDS011;39569;51.090;-1.786;2023-06-04T10:53:17;6.97;;;2.70;;
53245;SDS011;39569;51.090;-1.786;2023-06-04T10:55:44;8.32;;;3.13;;
53245;SDS011;39569;51.090;-1.786;2023-06-04T10:58:12;3.60;;;2.33;;
53245;SDS011;39569;51.090;-1.786;2023-06-04T11:00:41;2.40;;;1.90;;
53245;SDS011;39569;51.090;-1.786;2023-06-04T11:03:11;3.70;;;1.60;;
53245;SDS011;39569;51.090;-1.786;2023-06-04T11:05:39;1.83;;;1.73;;
53245;SDS011;39569;51.090;-1.786;2023-06-04T11:08:07;1.85;;;1.65;;
53245;SDS011;39569;51.090;-1.786;2023-06-04T11:10:35;2.00;;;1.65;;
53245;SDS011;39569;51.090;-1.786;2023-06-04T11:13:08;3.83;;;1.52;;
53245;SDS011;39569;51.090;-1.786;2023-06-04T11:15:39;2.53;;;2.38;;
53245;SDS011;39569;51.090;-1.786;2023-06-04T11:18:12;3.00;;;2.80;;
53245;SDS011;39569;51.090;-1.786;2023-06-04T11:20:40;4.80;;;1.92;;
53245;SDS011;39569;51.090;-1.786;2023-06-04T11:23:08;1.98;;;1.77;;
53245;SDS011;39569;51.090;-1.786;2023-06-04T11:25:37;13.38;;;2.28;;
53245;SDS011;39569;51.090;-1.786;2023-06-04T11:28:04;3.15;;;2.03;;
53245;SDS011;39569;51.090;-1.786;2023-06-04T11:30:31;1.95;;;1.85;;
53245;SDS011;39569;51.090;-1.786;2023-06-04T11:33:03;5.80;;;2.75;;
53245;SDS011;39569;51.090;-1.786;2023-06-04T11:35:31;1.90;;;1.65;;
53245;SDS011;39569;51.090;-1.786;2023-06-04T11:38:05;1.83;;;1.73;;
53245;SDS011;39569;51.090;-1.786;2023-06-04T11:40:32;1.88;;;1.67;;
53245;SDS011;39569;51.090;-1.786;2023-06-04T11:42:59;5.65;;;3.03;;
53245;SDS011;39569;51.090;-1.786;2023-06-04T11:45:27;3.38;;;1.95;;
53245;SDS011;39569;51.090;-1.786;2023-06-04T11:47:55;1.95;;;1.60;;
53245;SDS011;39569;51.090;-1.786;2023-06-04T11:50:26;2.47;;;2.20;;
53245;SDS011;39569;51.090;-1.786;2023-06-04T11:52:54;4.65;;;2.47;;
53245;SDS011;39569;51.090;-1.786;2023-06-04T11:55:21;17.25;;;1.88;;
53245;SDS011;39569;51.090;-1.786;2023-06-04T11:57:48;3.15;;;1.77;;
53245;SDS011;39569;51.090;-1.786;2023-06-04T12:00:16;3.33;;;2.13;;
53245;SDS011;39569;51.090;-1.786;2023-06-04T12:02:50;2.83;;;1.85;;
53245;SDS011;39569;51.090;-1.786;2023-06-04T12:05:18;2.20;;;1.92;;
53245;SDS011;39569;51.090;-1.786;2023-06-04T12:07:49;3.38;;;2.53;;
53245;SDS011;39569;51.090;-1.786;2023-06-04T12:10:17;2.53;;;1.67;;
53245;SDS011;39569;51.090;-1.786;2023-06-04T12:12:44;6.15;;;2.97;;
53245;SDS011;39569;51.090;-1.786;2023-06-04T12:15:11;2.75;;;2.22;;
53245;SDS011;39569;51.090;-1.786;2023-06-04T12:17:48;1.90;;;1.75;;
53245;SDS011;39569;51.090;-1.786;2023-06-04T12:20:15;9.45;;;2.00;;
53245;SDS011;39569;51.090;-1.786;2023-06-04T12:22:45;9.63;;;2.75;;
53245;SDS011;39569;51.090;-1.786;2023-06-04T12:25:22;2.47;;;2.15;;
53245;SDS011;39569;51.090;-1.786;2023-06-04T12:27:51;6.78;;;2.13;;
53245;SDS011;39569;51.090;-1.786;2023-06-04T12:30:17;2.97;;;1.92;;
53245;SDS011;39569;51.090;-1.786;2023-06-04T12:32:44;1.27;;;1.17;;
53245;SDS011;39569;51.090;-1.786;2023-06-04T12:35:11;2.25;;;2.00;;
53245;SDS011;39569;51.090;-1.786;2023-06-04T12:37:38;4.50;;;2.10;;
53245;SDS011;39569;51.090;-1.786;2023-06-04T12:40:05;4.18;;;2.45;;
53245;SDS011;39569;51.090;-1.786;2023-06-04T12:42:35;11.35;;;2.42;;
53245;SDS011;39569;51.090;-1.786;2023-06-04T12:45:02;3.97;;;2.83;;
53245;SDS011;39569;51.090;-1.786;2023-06-04T12:47:29;6.40;;;2.20;;
53245;SDS011;39569;51.090;-1.786;2023-06-04T12:49:57;5.80;;;2.28;;
53245;SDS011;39569;51.090;-1.786;2023-06-04T12:52:24;2.38;;;1.85;;
53245;SDS011;39569;51.090;-1.786;2023-06-04T12:54:51;2.60;;;2.17;;
53245;SDS011;39569;51.090;-1.786;2023-06-04T12:57:17;4.38;;;2.15;;
53245;SDS011;39569;51.090;-1.786;2023-06-04T12:59:46;5.13;;;2.53;;
53245;SDS011;39569;51.090;-1.786;2023-06-04T13:02:12;3.15;;;2.10;;
53245;SDS011;39569;51.090;-1.786;2023-06-04T13:04:39;1.83;;;1.73;;
53245;SDS011;39569;51.090;-1.786;2023-06-04T13:07:09;1.85;;;1.75;;
53245;SDS011;39569;51.090;-1.786;2023-06-04T13:09:36;2.05;;;1.40;;
53245;SDS011;39569;51.090;-1.786;2023-06-04T13:12:03;2.92;;;1.83;;
53245;SDS011;39569;51.090;-1.786;2023-06-04T13:14:31;3.80;;;2.13;;
53245;SDS011;39569;51.090;-1.786;2023-06-04T13:17:00;2.30;;;2.00;;
53245;SDS011;39569;51.090;-1.786;2023-06-04T13:19:27;6.28;;;2.08;;
53245;SDS011;39569;51.090;-1.786;2023-06-04T13:21:54;11.25;;;1.92;;
53245;SDS011;39569;51.090;-1.786;2023-06-04T13:24:22;3.40;;;2.60;;
53245;SDS011;39569;51.090;-1.786;2023-06-04T13:26:49;2.67;;;1.92;;
53245;SDS011;39569;51.090;-1.786;2023-06-04T13:29:15;5.82;;;2.00;;
53245;SDS011;39569;51.090;-1.786;2023-06-04T13:31:47;2.00;;;1.80;;
53245;SDS011;39569;51.090;-1.786;2023-06-04T13:34:15;4.38;;;2.58;;
53245;SDS011;39569;51.090;-1.786;2023-06-04T13:36:42;4.65;;;1.98;;
53245;SDS011;39569;51.090;-1.786;2023-06-04T13:39:09;3.83;;;1.63;;
53245;SDS011;39569;51.090;-1.786;2023-06-04T13:41:36;2.58;;;1.73;;
53245;SDS011;39569;51.090;-1.786;2023-06-04T13:44:02;3.08;;;2.35;;
53245;SDS011;39569;51.090;-1.786;2023-06-04T13:46:29;2.00;;;1.67;;
53245;SDS011;39569;51.090;-1.786;2023-06-04T13:48:56;4.10;;;2.13;;
53245;SDS011;39569;51.090;-1.786;2023-06-04T13:51:24;2.72;;;1.95;;
53245;SDS011;39569;51.090;-1.786;2023-06-04T13:53:52;3.03;;;2.05;;
53245;SDS011;39569;51.090;-1.786;2023-06-04T13:56:19;2.47;;;2.05;;
53245;SDS011;39569;51.090;-1.786;2023-06-04T13:58:46;3.17;;;2.30;;
53245;SDS011;39569;51.090;-1.786;2023-06-04T14:01:13;2.42;;;1.95;;
53245;SDS011;39569;51.090;-1.786;2023-06-04T14:03:41;2.85;;;2.05;;
53245;SDS011;39569;51.090;-1.786;2023-06-04T14:06:08;2.25;;;1.63;;
53245;SDS011;39569;51.090;-1.786;2023-06-04T14:08:36;3.08;;;2.35;;
53245;SDS011;39569;51.090;-1.786;2023-06-04T14:11:03;3.67;;;2.45;;
53245;SDS011;39569;51.090;-1.786;2023-06-04T14:13:29;1.80;;;1.70;;
53245;SDS011;39569;51.090;-1.786;2023-06-04T14:15:56;7.22;;;2.70;;
53245;SDS011;39569;51.090;-1.786;2023-06-04T14:18:23;3.10;;;2.38;;
53245;SDS011;39569;51.090;-1.786;2023-06-04T14:20:50;2.35;;;2.15;;
53245;SDS011;39569;51.090;-1.786;2023-06-04T14:23:17;2.55;;;2.35;;
53245;SDS011;39569;51.090;-1.786;2023-06-04T14:25:45;5.15;;;2.67;;
53245;SDS011;39569;51.090;-1.786;2023-06-04T14:28:12;4.75;;;2.42;;
53245;SDS011;39569;51.090;-1.786;2023-06-04T14:30:38;4.82;;;2.47;;
53245;SDS011;39569;51.090;-1.786;2023-06-04T14:33:05;5.25;;;2.50;;
53245;SDS011;39569;51.090;-1.786;2023-06-04T14:35:32;1.98;;;1.88;;